Time,TemperatureF,DewpointF,PressureIn,WindDirection,WindDirectionDegrees,WindSpeedMPH,WindSpeedGustMPH,Humidity,HourlyPrecipIn,Conditions,Clouds,dailyrainin,SolarRadiationWatts/m^2,SoftwareType,DateUTC
2013-03-03 00:00:00,10.7,4.6,30.20,NW,305,0.0,1.0,76,0.00,,---,0.00,0.00,VWS V14.01,2013-03-03 06:00:00,
2013-03-03 00:05:00,10.6,4.8,30.21,NW,304,1.0,1.0,77,0.00,,---,0.00,0.00,VWS V14.01,2013-03-03 06:05:00,
2013-03-03 00:10:00,10.3,4.5,30.21,NW,305,1.0,2.0,77,0.00,,---,0.00,0.00,VWS V14.01,2013-03-03 06:10:00,
2013-03-03 00:15:00,9.8,4.1,30.21,NW,305,0.0,2.0,77,0.00,,---,0.00,0.00,VWS V14.01,2013-03-03 06:15:00,
2013-03-03 00:20:00,9.7,4.2,30.20,NW,304,1.0,2.0,78,0.00,,---,0.00,0.00,VWS V14.01,2013-03-03 06:20:00,
2013-03-03 00:25:00,9.4,3.9,30.20,NW,305,0.0,2.0,78,0.00,,---,0.00,0.00,VWS V14.01,2013-03-03 06:25:00,
2013-03-03 00:30:00,9.3,3.8,30.20,NW,304,1.0,2.0,78,0.00,,---,0.00,0.00,VWS V14.01,2013-03-03 06:30:00,
2013-03-03 00:35:00,9.2,3.7,30.21,NW,304,0.0,2.0,78,0.00,,---,0.00,0.00,VWS V14.01,2013-03-03 06:35:00,
2013-03-03 00:40:00,9.1,3.7,30.20,NW,304,1.0,2.0,78,0.00,,---,0.00,0.00,VWS V14.01,2013-03-03 06:40:00,
2013-03-03 00:45:00,8.9,3.5,30.20,NW,305,2.0,2.0,78,0.00,,---,0.00,0.00,VWS V14.01,2013-03-03 06:45:00,
2013-03-03 00:50:00,8.6,3.2,30.20,NW,305,0.0,2.0,78,0.00,,---,0.00,0.00,VWS V14.01,2013-03-03 06:50:00,
2013-03-03 00:55:00,8.5,3.3,30.20,NW,304,0.0,2.0,79,0.00,,---,0.00,0.00,VWS V14.01,2013-03-03 06:55:00,
2013-03-03 01:00:00,8.3,2.9,30.20,NW,304,0.0,0.0,78,0.00,,---,0.00,0.00,VWS V14.01,2013-03-03 07:00:00,
2013-03-03 01:05:00,8.1,2.7,30.20,NW,304,1.0,1.0,78,0.00,,---,0.00,0.00,VWS V14.01,2013-03-03 07:05:00,
2013-03-03 01:10:00,7.8,2.4,30.20,NW,304,0.0,1.0,78,0.00,,---,0.00,0.00,VWS V14.01,2013-03-03 07:10:00,
2013-03-03 01:15:00,7.6,2.2,30.20,NW,305,0.0,1.0,78,0.00,,---,0.00,0.00,VWS V14.01,2013-03-03 07:15:00,
2013-03-03 01:20:00,7.4,2.0,30.20,NW,305,1.0,1.0,78,0.00,,---,0.00,0.00,VWS V14.01,2013-03-03 07:20:00,
2013-03-03 01:25:00,7.2,2.1,30.20,NW,304,0.0,1.0,79,0.00,,---,0.00,0.00,VWS V14.01,2013-03-03 07:25:00,
2013-03-03 01:30:00,7.0,1.9,30.20,NW,304,1.0,1.0,79,0.00,,---,0.00,0.00,VWS V14.01,2013-03-03 07:30:00,
2013-03-03 01:35:00,6.8,1.7,30.19,NW,304,0.0,1.0,79,0.00,,---,0.00,0.00,VWS V14.01,2013-03-03 07:35:00,
2013-03-03 01:40:00,6.6,1.5,30.19,NW,305,0.0,1.0,79,0.00,,---,0.00,0.00,VWS V14.01,2013-03-03 07:40:00,
2013-03-03 01:45:00,6.5,1.4,30.19,NW,305,0.0,1.0,79,0.00,,---,0.00,0.00,VWS V14.01,2013-03-03 07:45:00,
2013-03-03 01:50:00,6.4,1.3,30.19,NW,304,0.0,1.0,79,0.00,,---,0.00,0.00,VWS V14.01,2013-03-03 07:50:00,
2013-03-03 01:55:00,6.2,1.1,30.19,NW,304,0.0,1.0,79,0.00,,---,0.00,0.00,VWS V14.01,2013-03-03 07:55:00,
2013-03-03 02:00:00,6.0,0.9,30.19,NW,304,0.0,0.0,79,0.00,,---,0.00,0.00,VWS V14.01,2013-03-03 08:00:00,
2013-03-03 02:05:00,5.8,0.7,30.19,NW,304,0.0,0.0,79,0.00,,---,0.00,0.00,VWS V14.01,2013-03-03 08:05:00,
2013-03-03 02:10:00,5.7,0.6,30.19,NW,304,0.0,0.0,79,0.00,,---,0.00,0.00,VWS V14.01,2013-03-03 08:10:00,
2013-03-03 02:15:00,5.6,0.8,30.18,NW,304,0.0,0.0,80,0.00,,---,0.00,0.00,VWS V14.01,2013-03-03 08:15:00,
2013-03-03 02:20:00,5.4,0.6,30.18,NW,305,0.0,0.0,80,0.00,,---,0.00,0.00,VWS V14.01,2013-03-03 08:20:00,
2013-03-03 02:25:00,5.1,0.3,30.18,NW,305,1.0,2.0,80,0.00,,---,0.00,0.00,VWS V14.01,2013-03-03 08:25:00,
2013-03-03 02:30:00,4.8,0.0,30.18,NW,304,1.0,2.0,80,0.00,,---,0.00,0.00,VWS V14.01,2013-03-03 08:30:00,
2013-03-03 02:35:00,4.5,-0.3,30.18,NW,304,1.0,2.0,80,0.00,,---,0.00,0.00,VWS V14.01,2013-03-03 08:35:00,
2013-03-03 02:40:00,4.2,-0.6,30.18,NW,305,1.0,2.0,80,0.00,,---,0.00,0.00,VWS V14.01,2013-03-03 08:40:00,
2013-03-03 02:45:00,4.1,-0.7,30.18,NW,304,0.0,2.0,80,0.00,,---,0.00,0.00,VWS V14.01,2013-03-03 08:45:00,
2013-03-03 02:50:00,3.9,-0.6,30.17,NW,305,0.0,2.0,81,0.00,,---,0.00,0.00,VWS V14.01,2013-03-03 08:50:00,
2013-03-03 02:55:00,3.8,-0.7,30.17,NW,304,1.0,2.0,81,0.00,,---,0.00,0.00,VWS V14.01,2013-03-03 08:55:00,
2013-03-03 03:00:00,3.6,-0.9,30.17,NW,305,1.0,1.0,81,0.00,,---,0.00,0.00,VWS V14.01,2013-03-03 09:00:00,
2013-03-03 03:05:00,3.3,-1.2,30.17,NW,305,1.0,2.0,81,0.00,,---,0.00,0.00,VWS V14.01,2013-03-03 09:05:00,
2013-03-03 03:10:00,2.9,-1.6,30.17,NW,305,2.0,2.0,81,0.00,,---,0.00,0.00,VWS V14.01,2013-03-03 09:10:00,
2013-03-03 03:15:00,2.6,-1.9,30.17,NW,305,1.0,2.0,81,0.00,,---,0.00,0.00,VWS V14.01,2013-03-03 09:15:00,
2013-03-03 03:20:00,2.4,-1.8,30.17,NW,305,1.0,2.0,82,0.00,,---,0.00,0.00,VWS V14.01,2013-03-03 09:20:00,
2013-03-03 03:25:00,2.3,-1.9,30.17,NW,305,0.0,2.0,82,0.00,,---,0.00,0.00,VWS V14.01,2013-03-03 09:25:00,
2013-03-03 03:30:00,2.3,-1.9,30.17,NW,304,0.0,2.0,82,0.00,,---,0.00,0.00,VWS V14.01,2013-03-03 09:30:00,
2013-03-03 03:35:00,2.2,-2.0,30.18,NW,304,0.0,2.0,82,0.00,,---,0.00,0.00,VWS V14.01,2013-03-03 09:35:00,
2013-03-03 03:40:00,2.2,-1.8,30.18,NW,304,0.0,2.0,83,0.00,,---,0.00,0.00,VWS V14.01,2013-03-03 09:40:00,
2013-03-03 03:45:00,2.3,-1.7,30.18,NW,305,0.0,2.0,83,0.00,,---,0.00,0.00,VWS V14.01,2013-03-03 09:45:00,
2013-03-03 03:50:00,2.3,-1.7,30.18,NW,305,0.0,2.0,83,0.00,,---,0.00,0.00,VWS V14.01,2013-03-03 09:50:00,
2013-03-03 03:55:00,2.4,-1.6,30.18,NW,304,0.0,2.0,83,0.00,,---,0.00,0.00,VWS V14.01,2013-03-03 09:55:00,
2013-03-03 04:00:00,2.4,-1.6,30.18,NW,304,0.0,0.0,83,0.00,,---,0.00,0.00,VWS V14.01,2013-03-03 10:00:00,
2013-03-03 04:05:00,2.4,-1.3,30.18,NW,305,0.0,0.0,84,0.00,,---,0.00,0.00,VWS V14.01,2013-03-03 10:05:00,
2013-03-03 04:10:00,2.4,-1.3,30.18,NW,304,0.0,0.0,84,0.00,,---,0.00,0.00,VWS V14.01,2013-03-03 10:10:00,
2013-03-03 04:15:00,2.4,-1.3,30.18,NW,304,0.0,0.0,84,0.00,,---,0.00,0.00,VWS V14.01,2013-03-03 10:15:00,
2013-03-03 04:20:00,2.5,-1.2,30.18,NW,304,0.0,0.0,84,0.00,,---,0.00,0.00,VWS V14.01,2013-03-03 10:20:00,
2013-03-03 04:25:00,2.5,-1.2,30.18,NW,305,0.0,0.0,84,0.00,,---,0.00,0.00,VWS V14.01,2013-03-03 10:25:00,
2013-03-03 04:30:00,2.5,-1.2,30.18,NW,305,0.0,0.0,84,0.00,,---,0.00,0.00,VWS V14.01,2013-03-03 10:30:00,
2013-03-03 04:35:00,2.4,-1.3,30.19,NW,305,0.0,0.0,84,0.00,,---,0.00,0.00,VWS V14.01,2013-03-03 10:35:00,
2013-03-03 04:40:00,2.3,-1.4,30.19,NW,305,0.0,0.0,84,0.00,,---,0.00,0.00,VWS V14.01,2013-03-03 10:40:00,
2013-03-03 04:45:00,2.2,-1.5,30.19,NW,305,0.0,0.0,84,0.00,,---,0.00,0.00,VWS V14.01,2013-03-03 10:45:00,
2013-03-03 04:50:00,2.2,-1.5,30.19,NW,304,0.0,1.0,84,0.00,,---,0.00,0.00,VWS V14.01,2013-03-03 10:50:00,
2013-03-03 04:55:00,2.1,-1.6,30.19,NW,305,0.0,1.0,84,0.00,,---,0.00,0.00,VWS V14.01,2013-03-03 10:55:00,
2013-03-03 05:00:00,2.0,-1.7,30.19,NW,304,1.0,1.0,84,0.00,,---,0.00,0.00,VWS V14.01,2013-03-03 11:00:00,
2013-03-03 05:05:00,1.9,-1.8,30.19,NW,304,0.0,2.0,84,0.00,,---,0.00,0.00,VWS V14.01,2013-03-03 11:05:00,
2013-03-03 05:10:00,1.8,-1.9,30.19,NW,305,0.0,2.0,84,0.00,,---,0.00,0.00,VWS V14.01,2013-03-03 11:10:00,
2013-03-03 05:15:00,1.7,-2.0,30.20,NW,305,0.0,2.0,84,0.00,,---,0.00,0.00,VWS V14.01,2013-03-03 11:15:00,
2013-03-03 05:20:00,1.5,-2.5,30.20,NW,304,0.0,2.0,83,0.00,,---,0.00,0.00,VWS V14.01,2013-03-03 11:20:00,
2013-03-03 05:25:00,1.2,-2.8,30.19,NW,305,0.0,2.0,83,0.00,,---,0.00,0.00,VWS V14.01,2013-03-03 11:25:00,
2013-03-03 05:30:00,1.0,-2.9,30.19,NW,305,0.0,2.0,83,0.00,,---,0.00,0.00,VWS V14.01,2013-03-03 11:30:00,
2013-03-03 05:35:00,0.7,-3.2,30.19,NW,304,1.0,2.0,83,0.00,,---,0.00,0.00,VWS V14.01,2013-03-03 11:35:00,
2013-03-03 05:40:00,0.6,-3.3,30.19,NW,305,0.0,2.0,83,0.00,,---,0.00,0.00,VWS V14.01,2013-03-03 11:40:00,
2013-03-03 05:45:00,0.5,-3.4,30.19,NW,304,0.0,2.0,83,0.00,,---,0.00,0.00,VWS V14.01,2013-03-03 11:45:00,
2013-03-03 05:50:00,0.3,-3.6,30.19,NW,305,0.0,2.0,83,0.00,,---,0.00,0.00,VWS V14.01,2013-03-03 11:50:00,
2013-03-03 05:55:00,0.2,-3.7,30.20,NW,304,0.0,2.0,83,0.00,,---,0.00,0.00,VWS V14.01,2013-03-03 11:55:00,
2013-03-03 06:00:00,0.1,-3.6,30.20,NW,304,0.0,1.0,84,0.00,,---,0.00,0.00,VWS V14.01,2013-03-03 12:00:00,
2013-03-03 06:05:00,0.1,-3.9,30.20,NW,305,0.0,1.0,83,0.00,,---,0.00,0.00,VWS V14.01,2013-03-03 12:05:00,
2013-03-03 06:10:00,-0.1,-3.9,30.20,NW,304,0.0,1.0,83,0.00,,---,0.00,0.00,VWS V14.01,2013-03-03 12:10:00,
2013-03-03 06:15:00,-0.1,-4.0,30.19,NW,305,0.0,1.0,83,0.00,,---,0.00,0.00,VWS V14.01,2013-03-03 12:15:00,
2013-03-03 06:20:00,-0.2,-4.1,30.20,NW,305,0.0,1.0,83,0.00,,---,0.00,0.00,VWS V14.01,2013-03-03 12:20:00,
2013-03-03 06:25:00,-0.3,-4.0,30.20,NW,305,0.0,1.0,84,0.00,,---,0.00,0.00,VWS V14.01,2013-03-03 12:25:00,
2013-03-03 06:30:00,-0.3,-4.0,30.19,NW,305,0.0,1.0,84,0.00,,---,0.00,0.00,VWS V14.01,2013-03-03 12:30:00,
2013-03-03 06:35:00,-0.4,-4.1,30.20,NW,305,0.0,1.0,84,0.00,,---,0.00,5.00,VWS V14.01,2013-03-03 12:35:00,
2013-03-03 06:40:00,-0.4,-4.1,30.20,NW,305,0.0,1.0,84,0.00,,---,0.00,9.00,VWS V14.01,2013-03-03 12:40:00,
2013-03-03 06:45:00,-0.4,-4.1,30.19,NW,305,0.0,1.0,84,0.00,,---,0.00,11.00,VWS V14.01,2013-03-03 12:45:00,
2013-03-03 06:50:00,-0.4,-4.1,30.19,NW,305,0.0,1.0,84,0.00,,---,0.00,12.00,VWS V14.01,2013-03-03 12:50:00,
2013-03-03 06:55:00,-0.3,-4.0,30.19,NW,305,0.0,1.0,84,0.00,,---,0.00,16.00,VWS V14.01,2013-03-03 12:55:00,
2013-03-03 07:00:00,-0.4,-4.1,30.19,NW,304,0.0,0.0,84,0.00,,---,0.00,18.00,VWS V14.01,2013-03-03 13:00:00,
2013-03-03 07:05:00,-0.4,-4.1,30.19,NW,305,0.0,0.0,84,0.00,,---,0.00,21.00,VWS V14.01,2013-03-03 13:05:00,
2013-03-03 07:10:00,-0.4,-4.1,30.19,NW,304,0.0,0.0,84,0.00,,---,0.00,26.00,VWS V14.01,2013-03-03 13:10:00,
2013-03-03 07:15:00,-0.4,-4.1,30.19,NW,304,0.0,0.0,84,0.00,,---,0.00,35.00,VWS V14.01,2013-03-03 13:15:00,
2013-03-03 07:20:00,-0.4,-4.1,30.20,NW,304,0.0,0.0,84,0.00,,---,0.00,40.00,VWS V14.01,2013-03-03 13:20:00,
2013-03-03 07:25:00,-0.3,-4.0,30.20,NW,305,0.0,0.0,84,0.00,,---,0.00,65.00,VWS V14.01,2013-03-03 13:25:00,
2013-03-03 07:30:00,-0.2,-3.6,30.20,NW,305,0.0,0.0,85,0.00,,---,0.00,72.00,VWS V14.01,2013-03-03 13:30:00,
2013-03-03 07:35:00,-0.1,-3.4,30.20,NW,305,0.0,1.0,85,0.00,,---,0.00,77.00,VWS V14.01,2013-03-03 13:35:00,
2013-03-03 07:40:00,0.5,-2.7,30.20,NW,305,1.0,2.0,86,0.00,,---,0.00,98.00,VWS V14.01,2013-03-03 13:40:00,
2013-03-03 07:45:00,0.8,-2.4,30.20,NW,305,0.0,2.0,86,0.00,,---,0.00,141.00,VWS V14.01,2013-03-03 13:45:00,
2013-03-03 07:50:00,1.1,-2.1,30.20,NW,304,0.0,2.0,86,0.00,,---,0.00,193.00,VWS V14.01,2013-03-03 13:50:00,
2013-03-03 07:55:00,1.4,-1.8,30.20,NW,305,0.0,2.0,86,0.00,,---,0.00,211.00,VWS V14.01,2013-03-03 13:55:00,
2013-03-03 08:00:00,1.9,-1.1,30.20,NW,305,0.0,0.0,87,0.00,,---,0.00,230.00,VWS V14.01,2013-03-03 14:00:00,
2013-03-03 08:05:00,2.6,-0.4,30.20,NW,305,0.0,0.0,87,0.00,,---,0.00,244.00,VWS V14.01,2013-03-03 14:05:00,
2013-03-03 08:10:00,3.5,0.8,30.20,NW,305,0.0,0.0,88,0.00,,---,0.00,218.00,VWS V14.01,2013-03-03 14:10:00,
2013-03-03 08:15:00,4.6,1.8,30.20,NW,305,2.0,2.0,88,0.00,,---,0.00,241.00,VWS V14.01,2013-03-03 14:15:00,
2013-03-03 08:20:00,5.4,2.6,30.20,NW,305,3.0,3.0,88,0.00,,---,0.00,264.00,VWS V14.01,2013-03-03 14:20:00,
2013-03-03 08:25:00,6.2,3.2,30.20,NW,305,2.0,3.0,87,0.00,,---,0.00,257.00,VWS V14.01,2013-03-03 14:25:00,
2013-03-03 08:30:00,6.7,3.7,30.20,NW,304,3.0,3.0,87,0.00,,---,0.00,325.00,VWS V14.01,2013-03-03 14:30:00,
2013-03-03 08:35:00,7.0,3.5,30.20,NW,304,3.0,3.0,85,0.00,,---,0.00,301.00,VWS V14.01,2013-03-03 14:35:00,
2013-03-03 08:40:00,7.2,3.4,30.20,NW,304,2.0,3.0,84,0.00,,---,0.00,267.00,VWS V14.01,2013-03-03 14:40:00,
2013-03-03 08:45:00,7.5,3.4,30.20,NW,304,2.0,3.0,83,0.00,,---,0.00,216.00,VWS V14.01,2013-03-03 14:45:00,
2013-03-03 08:50:00,8.0,3.9,30.20,NW,304,2.0,3.0,83,0.00,,---,0.00,223.00,VWS V14.01,2013-03-03 14:50:00,
2013-03-03 08:55:00,8.5,4.4,30.20,NW,304,2.0,3.0,83,0.00,,---,0.00,209.00,VWS V14.01,2013-03-03 14:55:00,
2013-03-03 09:00:00,9.1,4.7,30.20,WNW,300,3.0,3.0,82,0.00,,---,0.00,269.00,VWS V14.01,2013-03-03 15:00:00,
2013-03-03 09:05:00,9.5,4.9,30.20,WNW,291,2.0,4.0,81,0.00,,---,0.00,369.00,VWS V14.01,2013-03-03 15:05:00,
2013-03-03 09:10:00,9.9,5.0,30.20,WNW,291,2.0,4.0,80,0.00,,---,0.00,411.00,VWS V14.01,2013-03-03 15:10:00,
2013-03-03 09:15:00,10.3,5.4,30.20,WNW,287,2.0,4.0,80,0.00,,---,0.00,434.00,VWS V14.01,2013-03-03 15:15:00,
2013-03-03 09:20:00,10.9,5.9,30.20,West,273,3.0,4.0,80,0.00,,---,0.00,475.00,VWS V14.01,2013-03-03 15:20:00,
2013-03-03 09:25:00,11.5,6.3,30.20,WSW,257,3.0,4.0,79,0.00,,---,0.00,494.00,VWS V14.01,2013-03-03 15:25:00,
2013-03-03 09:30:00,12.3,7.0,30.20,WSW,256,3.0,4.0,79,0.00,,---,0.00,446.00,VWS V14.01,2013-03-03 15:30:00,
2013-03-03 09:35:00,13.1,7.5,30.20,WSW,256,3.0,4.0,78,0.00,,---,0.00,489.00,VWS V14.01,2013-03-03 15:35:00,
2013-03-03 09:40:00,14.0,8.1,30.20,WSW,256,2.0,4.0,77,0.00,,---,0.00,517.00,VWS V14.01,2013-03-03 15:40:00,
2013-03-03 09:45:00,14.9,8.7,30.20,WSW,256,3.0,4.0,76,0.00,,---,0.00,545.00,VWS V14.01,2013-03-03 15:45:00,
2013-03-03 09:50:00,15.9,9.1,30.20,WSW,256,3.0,4.0,74,0.00,,---,0.00,559.00,VWS V14.01,2013-03-03 15:50:00,
2013-03-03 09:55:00,17.0,9.9,30.19,WSW,256,3.0,4.0,73,0.00,,---,0.00,568.00,VWS V14.01,2013-03-03 15:55:00,
2013-03-03 10:00:00,17.9,10.1,30.19,WSW,256,2.0,4.0,71,0.00,,---,0.00,580.00,VWS V14.01,2013-03-03 16:00:00,
2013-03-03 10:05:00,18.5,10.0,30.19,WSW,247,3.0,5.0,69,0.00,,---,0.00,589.00,VWS V14.01,2013-03-03 16:05:00,
2013-03-03 10:10:00,18.9,10.1,30.19,WSW,246,3.0,5.0,68,0.00,,---,0.00,599.00,VWS V14.01,2013-03-03 16:10:00,
2013-03-03 10:15:00,19.4,10.2,30.19,WSW,238,3.0,5.0,67,0.00,,---,0.00,612.00,VWS V14.01,2013-03-03 16:15:00,
2013-03-03 10:20:00,20.0,10.8,30.19,WSW,252,2.0,5.0,67,0.00,,---,0.00,622.00,VWS V14.01,2013-03-03 16:20:00,
2013-03-03 10:25:00,20.7,10.8,30.19,WSW,242,3.0,5.0,65,0.00,,---,0.00,631.00,VWS V14.01,2013-03-03 16:25:00,
2013-03-03 10:30:00,21.1,10.8,30.19,WSW,237,4.0,5.0,64,0.00,,---,0.00,643.00,VWS V14.01,2013-03-03 16:30:00,
2013-03-03 10:35:00,21.6,11.0,30.19,SW,236,2.0,5.0,63,0.00,,---,0.00,649.00,VWS V14.01,2013-03-03 16:35:00,
2013-03-03 10:40:00,21.9,10.9,30.19,SW,236,3.0,5.0,62,0.00,,---,0.00,657.00,VWS V14.01,2013-03-03 16:40:00,
2013-03-03 10:45:00,22.7,11.6,30.19,SW,236,3.0,5.0,62,0.00,,---,0.00,666.00,VWS V14.01,2013-03-03 16:45:00,
2013-03-03 10:50:00,23.3,11.9,30.19,SW,236,2.0,5.0,61,0.00,,---,0.00,673.00,VWS V14.01,2013-03-03 16:50:00,
2013-03-03 10:55:00,23.8,12.0,30.18,WSW,241,2.0,5.0,60,0.00,,---,0.00,684.00,VWS V14.01,2013-03-03 16:55:00,
2013-03-03 11:00:00,24.6,12.7,30.18,WSW,257,3.0,3.0,60,0.00,,---,0.00,686.00,VWS V14.01,2013-03-03 17:00:00,
2013-03-03 11:05:00,25.2,12.5,30.18,WSW,257,3.0,4.0,58,0.00,,---,0.00,691.00,VWS V14.01,2013-03-03 17:05:00,
2013-03-03 11:10:00,25.9,12.4,30.18,WSW,250,4.0,4.0,56,0.00,,---,0.00,705.00,VWS V14.01,2013-03-03 17:10:00,
2013-03-03 11:15:00,26.4,12.4,30.18,WSW,245,3.0,5.0,55,0.00,,---,0.00,708.00,VWS V14.01,2013-03-03 17:15:00,
2013-03-03 11:20:00,26.6,11.4,30.18,WSW,245,2.0,5.0,52,0.00,,---,0.00,717.00,VWS V14.01,2013-03-03 17:20:00,
2013-03-03 11:25:00,27.0,11.7,30.18,WSW,257,2.0,5.0,52,0.00,,---,0.00,721.00,VWS V14.01,2013-03-03 17:25:00,
2013-03-03 11:30:00,27.5,11.3,30.17,WSW,253,2.0,5.0,50,0.00,,---,0.00,726.00,VWS V14.01,2013-03-03 17:30:00,
2013-03-03 11:35:00,27.8,11.1,30.17,WSW,246,4.0,5.0,49,0.00,,---,0.00,729.00,VWS V14.01,2013-03-03 17:35:00,
2013-03-03 11:40:00,27.8,11.1,30.17,WSW,243,3.0,5.0,49,0.00,,---,0.00,728.00,VWS V14.01,2013-03-03 17:40:00,
2013-03-03 11:45:00,27.8,11.1,30.17,WSW,239,2.0,5.0,49,0.00,,---,0.00,733.00,VWS V14.01,2013-03-03 17:45:00,
2013-03-03 11:50:00,28.3,11.6,30.17,WSW,239,3.0,5.0,49,0.00,,---,0.00,733.00,VWS V14.01,2013-03-03 17:50:00,
2013-03-03 11:55:00,28.7,11.5,30.17,WSW,240,3.0,5.0,48,0.00,,---,0.00,735.00,VWS V14.01,2013-03-03 17:55:00,
2013-03-03 12:00:00,28.9,12.6,30.17,SW,232,3.0,3.0,50,0.00,,---,0.00,740.00,VWS V14.01,2013-03-03 18:00:00,
2013-03-03 12:05:00,29.4,12.1,30.16,SW,234,4.0,4.0,48,0.00,,---,0.00,742.00,VWS V14.01,2013-03-03 18:05:00,
2013-03-03 12:10:00,29.4,12.1,30.16,SW,228,3.0,4.0,48,0.00,,---,0.00,744.00,VWS V14.01,2013-03-03 18:10:00,
2013-03-03 12:15:00,29.4,12.1,30.16,WSW,245,3.0,4.0,48,0.00,,---,0.00,744.00,VWS V14.01,2013-03-03 18:15:00,
2013-03-03 12:20:00,29.8,12.0,30.15,SW,233,3.0,6.0,47,0.00,,---,0.00,744.00,VWS V14.01,2013-03-03 18:20:00,
2013-03-03 12:25:00,30.1,12.3,30.15,SW,236,3.0,6.0,47,0.00,,---,0.00,744.00,VWS V14.01,2013-03-03 18:25:00,
2013-03-03 12:30:00,30.5,12.2,30.15,WSW,237,1.0,6.0,46,0.00,,---,0.00,742.00,VWS V14.01,2013-03-03 18:30:00,
2013-03-03 12:35:00,30.8,12.0,30.15,WSW,240,3.0,6.0,45,0.00,,---,0.00,740.00,VWS V14.01,2013-03-03 18:35:00,
2013-03-03 12:40:00,31.2,12.4,30.14,WSW,237,2.0,6.0,45,0.00,,---,0.00,737.00,VWS V14.01,2013-03-03 18:40:00,
2013-03-03 12:45:00,31.7,12.3,30.14,WSW,237,4.0,6.0,44,0.00,,---,0.00,735.00,VWS V14.01,2013-03-03 18:45:00,
2013-03-03 12:50:00,31.4,12.5,30.14,SW,232,4.0,6.0,45,0.00,,---,0.00,733.00,VWS V14.01,2013-03-03 18:50:00,
2013-03-03 12:55:00,31.2,12.4,30.14,SW,224,3.0,6.0,45,0.00,,---,0.00,729.00,VWS V14.01,2013-03-03 18:55:00,
2013-03-03 13:00:00,31.4,12.5,30.14,SW,236,3.0,4.0,45,0.00,,---,0.00,724.00,VWS V14.01,2013-03-03 19:00:00,
2013-03-03 13:05:00,31.9,12.5,30.13,SW,235,3.0,4.0,44,0.00,,---,0.00,719.00,VWS V14.01,2013-03-03 19:05:00,
2013-03-03 13:10:00,32.1,13.2,30.13,SW,227,3.0,4.0,45,0.00,,---,0.00,712.00,VWS V14.01,2013-03-03 19:10:00,
2013-03-03 13:15:00,32.2,12.8,30.13,SW,233,4.0,5.0,44,0.00,,---,0.00,708.00,VWS V14.01,2013-03-03 19:15:00,
2013-03-03 13:20:00,32.1,13.2,30.13,SW,232,4.0,5.0,45,0.00,,---,0.00,703.00,VWS V14.01,2013-03-03 19:20:00,
2013-03-03 13:25:00,32.0,13.1,30.13,SW,236,4.0,5.0,45,0.00,,---,0.00,696.00,VWS V14.01,2013-03-03 19:25:00,
2013-03-03 13:30:00,31.7,12.8,30.12,WSW,239,6.0,6.0,45,0.00,,---,0.00,689.00,VWS V14.01,2013-03-03 19:30:00,
2013-03-03 13:35:00,31.9,12.5,30.12,SW,234,4.0,6.0,44,0.00,,---,0.00,682.00,VWS V14.01,2013-03-03 19:35:00,
2013-03-03 13:40:00,31.5,12.1,30.12,SW,229,3.0,6.0,44,0.00,,---,0.00,675.00,VWS V14.01,2013-03-03 19:40:00,
2013-03-03 13:45:00,31.7,12.3,30.12,SW,220,3.0,6.0,44,0.00,,---,0.00,668.00,VWS V14.01,2013-03-03 19:45:00,
2013-03-03 13:50:00,32.1,12.1,30.11,SW,226,3.0,6.0,43,0.00,,---,0.00,659.00,VWS V14.01,2013-03-03 19:50:00,
2013-03-03 13:55:00,32.3,11.8,30.11,SW,229,5.0,6.0,42,0.00,,---,0.00,656.00,VWS V14.01,2013-03-03 19:55:00,
2013-03-03 14:00:00,32.5,11.4,30.11,SW,230,4.0,5.0,41,0.00,,---,0.00,647.00,VWS V14.01,2013-03-03 20:00:00,
2013-03-03 14:05:00,32.8,11.7,30.11,SW,230,3.0,5.0,41,0.00,,---,0.00,638.00,VWS V14.01,2013-03-03 20:05:00,
2013-03-03 14:10:00,32.9,12.3,30.11,SW,216,3.0,5.0,42,0.00,,---,0.00,629.00,VWS V14.01,2013-03-03 20:10:00,
2013-03-03 14:15:00,32.8,11.7,30.11,SW,215,3.0,5.0,41,0.00,,---,0.00,619.00,VWS V14.01,2013-03-03 20:15:00,
2013-03-03 14:20:00,32.8,10.6,30.11,SW,232,5.0,6.0,39,0.00,,---,0.00,608.00,VWS V14.01,2013-03-03 20:20:00,
2013-03-03 14:25:00,32.7,9.9,30.11,SW,220,3.0,6.0,38,0.00,,---,0.00,592.00,VWS V14.01,2013-03-03 20:25:00,
2013-03-03 14:30:00,32.6,10.4,30.11,SW,230,3.0,6.0,39,0.00,,---,0.00,585.00,VWS V14.01,2013-03-03 20:30:00,
2013-03-03 14:35:00,32.7,11.6,30.11,SW,226,5.0,6.0,41,0.00,,---,0.00,568.00,VWS V14.01,2013-03-03 20:35:00,
2013-03-03 14:40:00,32.3,9.0,30.11,SW,226,4.0,6.0,37,0.00,,---,0.00,564.00,VWS V14.01,2013-03-03 20:40:00,
2013-03-03 14:45:00,32.7,10.5,30.11,SW,223,4.0,6.0,39,0.00,,---,0.00,552.00,VWS V14.01,2013-03-03 20:45:00,
2013-03-03 14:50:00,32.5,6.6,30.11,SW,223,2.0,6.0,33,0.00,,---,0.00,541.00,VWS V14.01,2013-03-03 20:50:00,
2013-03-03 14:55:00,32.9,7.0,30.11,SW,224,4.0,6.0,33,0.00,,---,0.00,527.00,VWS V14.01,2013-03-03 20:55:00,
2013-03-03 15:00:00,32.6,3.9,30.11,SW,223,2.0,3.0,29,0.00,,---,0.00,513.00,VWS V14.01,2013-03-03 21:00:00,
2013-03-03 15:05:00,32.8,4.8,30.11,SW,232,5.0,6.0,30,0.00,,---,0.00,501.00,VWS V14.01,2013-03-03 21:05:00,
2013-03-03 15:10:00,33.1,2.8,30.11,SW,233,3.0,6.0,27,0.00,,---,0.00,471.00,VWS V14.01,2013-03-03 21:10:00,
2013-03-03 15:15:00,33.3,4.5,30.11,SW,234,3.0,6.0,29,0.00,,---,0.00,473.00,VWS V14.01,2013-03-03 21:15:00,
2013-03-03 15:20:00,33.4,5.3,30.11,SW,232,3.0,6.0,30,0.00,,---,0.00,457.00,VWS V14.01,2013-03-03 21:20:00,
2013-03-03 15:25:00,33.2,5.8,30.11,SW,231,4.0,6.0,31,0.00,,---,0.00,439.00,VWS V14.01,2013-03-03 21:25:00,
2013-03-03 15:30:00,33.1,7.1,30.10,SW,230,5.0,6.0,33,0.00,,---,0.00,413.00,VWS V14.01,2013-03-03 21:30:00,
2013-03-03 15:35:00,33.0,5.0,30.10,WSW,237,4.0,6.0,30,0.00,,---,0.00,397.00,VWS V14.01,2013-03-03 21:35:00,
2013-03-03 15:40:00,33.0,5.0,30.10,WSW,237,4.0,6.0,30,0.00,,---,0.00,380.00,VWS V14.01,2013-03-03 21:40:00,
2013-03-03 15:45:00,33.1,5.1,30.10,WSW,237,4.0,6.0,30,0.00,,---,0.00,360.00,VWS V14.01,2013-03-03 21:45:00,
2013-03-03 15:50:00,33.0,3.5,30.10,WSW,237,4.0,6.0,28,0.00,,---,0.00,327.00,VWS V14.01,2013-03-03 21:50:00,
2013-03-03 15:55:00,32.9,4.9,30.10,WSW,237,3.0,6.0,30,0.00,,---,0.00,295.00,VWS V14.01,2013-03-03 21:55:00,
2013-03-03 16:00:00,32.8,2.5,30.10,SW,236,4.0,4.0,27,0.00,,---,0.00,336.00,VWS V14.01,2013-03-03 22:00:00,
2013-03-03 16:05:00,32.3,2.1,30.10,SW,236,3.0,5.0,27,0.00,,---,0.00,322.00,VWS V14.01,2013-03-03 22:05:00,
2013-03-03 16:10:00,32.3,4.3,30.10,SW,236,3.0,5.0,30,0.00,,---,0.00,294.00,VWS V14.01,2013-03-03 22:10:00,
2013-03-03 16:15:00,32.5,6.6,30.10,SW,236,3.0,5.0,33,0.00,,---,0.00,279.00,VWS V14.01,2013-03-03 22:15:00,
2013-03-03 16:20:00,32.4,4.4,30.10,SW,236,2.0,5.0,30,0.00,,---,0.00,258.00,VWS V14.01,2013-03-03 22:20:00,
2013-03-03 16:25:00,32.3,1.3,30.10,SW,235,3.0,5.0,26,0.00,,---,0.00,237.00,VWS V14.01,2013-03-03 22:25:00,
2013-03-03 16:30:00,31.9,0.1,30.10,SW,235,3.0,5.0,25,0.00,,---,0.00,200.00,VWS V14.01,2013-03-03 22:30:00,
2013-03-03 16:35:00,31.9,-1.7,30.10,SW,235,2.0,5.0,23,0.00,,---,0.00,142.00,VWS V14.01,2013-03-03 22:35:00,
2013-03-03 16:40:00,31.8,1.6,30.10,SW,235,2.0,5.0,27,0.00,,---,0.00,123.00,VWS V14.01,2013-03-03 22:40:00,
2013-03-03 16:45:00,31.4,0.5,30.10,SW,235,2.0,5.0,26,0.00,,---,0.00,97.00,VWS V14.01,2013-03-03 22:45:00,
2013-03-03 16:50:00,31.3,2.0,30.10,SW,235,0.0,5.0,28,0.00,,---,0.00,72.00,VWS V14.01,2013-03-03 22:50:00,
2013-03-03 16:55:00,31.2,1.9,30.10,SW,235,0.0,5.0,28,0.00,,---,0.00,53.00,VWS V14.01,2013-03-03 22:55:00,
2013-03-03 17:00:00,31.2,3.4,30.10,SW,235,0.0,1.0,30,0.00,,---,0.00,40.00,VWS V14.01,2013-03-03 23:00:00,
2013-03-03 17:05:00,31.0,2.5,30.10,SW,235,1.0,2.0,29,0.00,,---,0.00,30.00,VWS V14.01,2013-03-03 23:05:00,
2013-03-03 17:10:00,30.8,1.5,30.10,SW,235,0.0,2.0,28,0.00,,---,0.00,26.00,VWS V14.01,2013-03-03 23:10:00,
2013-03-03 17:15:00,30.7,3.0,30.10,SW,235,0.0,2.0,30,0.00,,---,0.00,23.00,VWS V14.01,2013-03-03 23:15:00,
2013-03-03 17:20:00,30.6,3.6,30.10,SW,235,0.0,2.0,31,0.00,,---,0.00,21.00,VWS V14.01,2013-03-03 23:20:00,
2013-03-03 17:25:00,30.5,2.8,30.10,SW,235,0.0,2.0,30,0.00,,---,0.00,19.00,VWS V14.01,2013-03-03 23:25:00,
2013-03-03 17:30:00,30.4,3.4,30.10,SW,235,0.0,2.0,31,0.00,,---,0.00,16.00,VWS V14.01,2013-03-03 23:30:00,
2013-03-03 17:35:00,30.3,3.3,30.10,SW,235,0.0,2.0,31,0.00,,---,0.00,12.00,VWS V14.01,2013-03-03 23:35:00,
2013-03-03 17:40:00,30.2,2.5,30.10,SW,235,0.0,2.0,30,0.00,,---,0.00,9.00,VWS V14.01,2013-03-03 23:40:00,
2013-03-03 17:45:00,30.1,3.1,30.10,SW,235,0.0,2.0,31,0.00,,---,0.00,5.00,VWS V14.01,2013-03-03 23:45:00,
2013-03-03 17:50:00,29.9,3.6,30.10,SW,235,0.0,2.0,32,0.00,,---,0.00,0.00,VWS V14.01,2013-03-03 23:50:00,
2013-03-03 17:55:00,29.7,5.4,30.10,SW,235,0.0,2.0,35,0.00,,---,0.00,0.00,VWS V14.01,2013-03-03 23:55:00,
2013-03-03 18:00:00,29.4,6.4,30.10,SW,235,0.0,0.0,37,0.00,,---,0.00,0.00,VWS V14.01,2013-03-04 00:00:00,
2013-03-03 18:05:00,28.8,6.4,30.10,SW,235,0.0,0.0,38,0.00,,---,0.00,0.00,VWS V14.01,2013-03-04 00:05:00,
2013-03-03 18:10:00,28.0,6.8,30.10,SW,235,1.0,1.0,40,0.00,,---,0.00,0.00,VWS V14.01,2013-03-04 00:10:00,
2013-03-03 18:15:00,26.6,6.1,30.10,SW,235,1.0,2.0,41,0.00,,---,0.00,0.00,VWS V14.01,2013-03-04 00:15:00,
2013-03-03 18:20:00,25.6,6.2,30.10,SW,235,2.0,2.0,43,0.00,,---,0.00,0.00,VWS V14.01,2013-03-04 00:20:00,
2013-03-03 18:25:00,23.6,5.9,30.10,SW,235,2.0,3.0,46,0.00,,---,0.00,0.00,VWS V14.01,2013-03-04 00:25:00,
2013-03-03 18:30:00,22.4,6.2,30.10,SW,235,1.0,3.0,49,0.00,,---,0.00,0.00,VWS V14.01,2013-03-04 00:30:00,
2013-03-03 18:35:00,21.6,5.8,30.10,SW,235,1.0,3.0,50,0.00,,---,0.00,0.00,VWS V14.01,2013-03-04 00:35:00,
2013-03-03 18:40:00,20.6,5.8,30.11,SW,235,1.0,3.0,52,0.00,,---,0.00,0.00,VWS V14.01,2013-03-04 00:40:00,
2013-03-03 18:45:00,19.8,5.4,30.11,SW,235,1.0,3.0,53,0.00,,---,0.00,0.00,VWS V14.01,2013-03-04 00:45:00,
2013-03-03 18:50:00,18.9,5.4,30.11,SW,235,1.0,3.0,55,0.00,,---,0.00,0.00,VWS V14.01,2013-03-04 00:50:00,
2013-03-03 18:55:00,18.2,5.5,30.11,SW,235,2.0,3.0,57,0.00,,---,0.00,0.00,VWS V14.01,2013-03-04 00:55:00,
2013-03-03 19:00:00,16.9,4.7,30.11,SW,235,2.0,3.0,58,0.00,,---,0.00,0.00,VWS V14.01,2013-03-04 01:00:00,
2013-03-03 19:05:00,16.5,5.1,30.11,SW,235,0.0,3.0,60,0.00,,---,0.00,0.00,VWS V14.01,2013-03-04 01:05:00,
2013-03-03 19:10:00,16.4,5.0,30.11,SW,235,0.0,3.0,60,0.00,,---,0.00,0.00,VWS V14.01,2013-03-04 01:10:00,
2013-03-03 19:15:00,16.2,5.1,30.11,SW,235,2.0,3.0,61,0.00,,---,0.00,0.00,VWS V14.01,2013-03-04 01:15:00,
2013-03-03 19:20:00,15.4,4.7,30.11,SW,235,2.0,3.0,62,0.00,,---,0.00,0.00,VWS V14.01,2013-03-04 01:20:00,
2013-03-03 19:25:00,14.8,4.8,30.11,SW,235,3.0,3.0,64,0.00,,---,0.00,0.00,VWS V14.01,2013-03-04 01:25:00,
2013-03-03 19:30:00,14.5,4.9,30.12,SW,235,2.0,3.0,65,0.00,,---,0.00,0.00,VWS V14.01,2013-03-04 01:30:00,
2013-03-03 19:35:00,14.5,5.2,30.11,SW,235,1.0,3.0,66,0.00,,---,0.00,0.00,VWS V14.01,2013-03-04 01:35:00,
2013-03-03 19:40:00,14.4,5.1,30.11,SW,235,0.0,3.0,66,0.00,,---,0.00,0.00,VWS V14.01,2013-03-04 01:40:00,
2013-03-03 19:45:00,14.4,5.1,30.11,SW,235,0.0,3.0,66,0.00,,---,0.00,0.00,VWS V14.01,2013-03-04 01:45:00,
2013-03-03 19:50:00,14.5,5.2,30.12,SW,235,1.0,3.0,66,0.00,,---,0.00,0.00,VWS V14.01,2013-03-04 01:50:00,
2013-03-03 19:55:00,14.4,5.1,30.12,SW,235,1.0,3.0,66,0.00,,---,0.00,0.00,VWS V14.01,2013-03-04 01:55:00,
2013-03-03 20:00:00,14.4,5.1,30.12,SW,235,1.0,1.0,66,0.00,,---,0.00,0.00,VWS V14.01,2013-03-04 02:00:00,
2013-03-03 20:05:00,14.4,5.1,30.12,SW,235,0.0,1.0,66,0.00,,---,0.00,0.00,VWS V14.01,2013-03-04 02:05:00,
2013-03-03 20:10:00,14.3,5.0,30.12,SW,235,0.0,1.0,66,0.00,,---,0.00,0.00,VWS V14.01,2013-03-04 02:10:00,
2013-03-03 20:15:00,14.3,5.0,30.13,SW,235,0.0,1.0,66,0.00,,---,0.00,0.00,VWS V14.01,2013-03-04 02:15:00,
2013-03-03 20:20:00,14.3,5.0,30.13,SW,235,0.0,1.0,66,0.00,,---,0.00,0.00,VWS V14.01,2013-03-04 02:20:00,
2013-03-03 20:25:00,14.2,5.3,30.13,SW,235,0.0,1.0,67,0.00,,---,0.00,0.00,VWS V14.01,2013-03-04 02:25:00,
2013-03-03 20:30:00,14.2,5.3,30.13,SW,235,0.0,1.0,67,0.00,,---,0.00,0.00,VWS V14.01,2013-03-04 02:30:00,
2013-03-03 20:35:00,14.1,4.8,30.13,SW,235,0.0,1.0,66,0.00,,---,0.00,0.00,VWS V14.01,2013-03-04 02:35:00,
2013-03-03 20:40:00,14.0,5.1,30.13,SW,235,0.0,1.0,67,0.00,,---,0.00,0.00,VWS V14.01,2013-03-04 02:40:00,
2013-03-03 20:45:00,14.1,5.5,30.13,SW,235,0.0,1.0,68,0.00,,---,0.00,0.00,VWS V14.01,2013-03-04 02:45:00,
2013-03-03 20:50:00,14.1,5.5,30.13,SW,235,0.0,1.0,68,0.00,,---,0.00,0.00,VWS V14.01,2013-03-04 02:50:00,
2013-03-03 20:55:00,14.2,5.6,30.13,SW,235,0.0,1.0,68,0.00,,---,0.00,0.00,VWS V14.01,2013-03-04 02:55:00,
2013-03-03 21:00:00,14.3,6.3,30.13,SW,235,0.0,0.0,70,0.00,,---,0.00,0.00,VWS V14.01,2013-03-04 03:00:00,
2013-03-03 21:05:00,14.4,6.4,30.13,SW,235,0.0,0.0,70,0.00,,---,0.00,0.00,VWS V14.01,2013-03-04 03:05:00,
2013-03-03 21:10:00,14.1,5.5,30.13,SW,235,1.0,2.0,68,0.00,,---,0.00,0.00,VWS V14.01,2013-03-04 03:10:00,
2013-03-03 21:15:00,13.8,4.9,30.14,SW,235,0.0,2.0,67,0.00,,---,0.00,0.00,VWS V14.01,2013-03-04 03:15:00,
2013-03-03 21:20:00,13.5,4.6,30.13,SW,235,0.0,2.0,67,0.00,,---,0.00,0.00,VWS V14.01,2013-03-04 03:20:00,
2013-03-03 21:25:00,13.3,5.1,30.13,SW,235,1.0,2.0,69,0.00,,---,0.00,0.00,VWS V14.01,2013-03-04 03:25:00,
2013-03-03 21:30:00,13.4,5.8,30.13,SW,235,0.0,2.0,71,0.00,,---,0.00,0.00,VWS V14.01,2013-03-04 03:30:00,
2013-03-03 21:35:00,13.5,5.9,30.13,SW,235,0.0,2.0,71,0.00,,---,0.00,0.00,VWS V14.01,2013-03-04 03:35:00,
2013-03-03 21:40:00,13.6,6.0,30.12,SW,235,0.0,2.0,71,0.00,,---,0.00,0.00,VWS V14.01,2013-03-04 03:40:00,
2013-03-03 21:45:00,13.6,6.0,30.12,SW,235,0.0,2.0,71,0.00,,---,0.00,0.00,VWS V14.01,2013-03-04 03:45:00,
2013-03-03 21:50:00,13.5,5.6,30.12,SW,235,1.0,2.0,70,0.00,,---,0.00,0.00,VWS V14.01,2013-03-04 03:50:00,
2013-03-03 21:55:00,13.1,4.8,30.12,SW,235,1.0,2.0,69,0.00,,---,0.00,0.00,VWS V14.01,2013-03-04 03:55:00,
2013-03-03 22:00:00,12.6,4.4,30.12,SW,235,2.0,2.0,69,0.00,,---,0.00,0.00,VWS V14.01,2013-03-04 04:00:00,
2013-03-03 22:05:00,12.2,4.3,30.12,SW,235,0.0,2.0,70,0.00,,---,0.00,0.00,VWS V14.01,2013-03-04 04:05:00,
2013-03-03 22:10:00,12.2,4.3,30.12,SW,235,0.0,2.0,70,0.00,,---,0.00,0.00,VWS V14.01,2013-03-04 04:10:00,
2013-03-03 22:15:00,12.0,4.1,30.13,SW,235,0.0,2.0,70,0.00,,---,0.00,0.00,VWS V14.01,2013-03-04 04:15:00,
2013-03-03 22:20:00,11.9,4.3,30.13,SW,235,0.0,2.0,71,0.00,,---,0.00,0.00,VWS V14.01,2013-03-04 04:20:00,
2013-03-03 22:25:00,11.8,4.2,30.12,SW,235,0.0,2.0,71,0.00,,---,0.00,0.00,VWS V14.01,2013-03-04 04:25:00,
2013-03-03 22:30:00,11.7,4.4,30.13,SW,235,0.0,2.0,72,0.00,,---,0.00,0.00,VWS V14.01,2013-03-04 04:30:00,
2013-03-03 22:35:00,11.7,4.4,30.13,SW,235,0.0,2.0,72,0.00,,---,0.00,0.00,VWS V14.01,2013-03-04 04:35:00,
2013-03-03 22:40:00,11.6,4.3,30.13,SW,235,1.0,2.0,72,0.00,,---,0.00,0.00,VWS V14.01,2013-03-04 04:40:00,
2013-03-03 22:45:00,11.2,3.7,30.13,SW,235,2.0,2.0,71,0.00,,---,0.00,0.00,VWS V14.01,2013-03-04 04:45:00,
2013-03-03 22:50:00,10.9,3.7,30.13,SW,235,2.0,2.0,72,0.00,,---,0.00,0.00,VWS V14.01,2013-03-04 04:50:00,
2013-03-03 22:55:00,10.8,3.9,30.13,SW,235,0.0,2.0,73,0.00,,---,0.00,0.00,VWS V14.01,2013-03-04 04:55:00,
2013-03-03 23:00:00,10.8,4.2,30.13,SW,235,0.0,0.0,74,0.00,,---,0.00,0.00,VWS V14.01,2013-03-04 05:00:00,
2013-03-03 23:05:00,10.8,4.2,30.13,SW,235,0.0,0.0,74,0.00,,---,0.00,0.00,VWS V14.01,2013-03-04 05:05:00,
2013-03-03 23:10:00,10.9,4.6,30.12,SW,235,0.0,0.0,75,0.00,,---,0.00,0.00,VWS V14.01,2013-03-04 05:10:00,
2013-03-03 23:15:00,11.0,4.6,30.12,SW,235,0.0,0.0,75,0.00,,---,0.00,0.00,VWS V14.01,2013-03-04 05:15:00,
2013-03-03 23:20:00,11.2,5.1,30.12,SW,235,0.0,0.0,76,0.00,,---,0.00,0.00,VWS V14.01,2013-03-04 05:20:00,
2013-03-03 23:25:00,11.3,5.2,30.12,SW,235,0.0,0.0,76,0.00,,---,0.00,0.00,VWS V14.01,2013-03-04 05:25:00,
2013-03-03 23:30:00,11.5,5.7,30.12,SW,235,0.0,0.0,77,0.00,,---,0.00,0.00,VWS V14.01,2013-03-04 05:30:00,
2013-03-03 23:35:00,11.6,5.5,30.12,SW,235,0.0,1.0,76,0.00,,---,0.00,0.00,VWS V14.01,2013-03-04 05:35:00,
2013-03-03 23:40:00,11.5,5.4,30.12,SW,235,0.0,1.0,76,0.00,,---,0.00,0.00,VWS V14.01,2013-03-04 05:40:00,
2013-03-03 23:45:00,11.4,5.3,30.11,SW,235,0.0,1.0,76,0.00,,---,0.00,0.00,VWS V14.01,2013-03-04 05:45:00,
2013-03-03 23:50:00,11.4,5.3,30.11,SW,235,0.0,1.0,76,0.00,,---,0.00,0.00,VWS V14.01,2013-03-04 05:50:00,
2013-03-03 23:55:00,11.4,5.3,30.12,SW,235,0.0,1.0,76,0.00,,---,0.00,0.00,VWS V14.01,2013-03-04 05:55:00,